Emo River Airstrip


Codes: AYEO/EMO
Name: Emo River Airstrip
City: Emo Mission
Country: Papua New Guinea
Elevation: 2240 ft.

Photos at Emo River Airstrip


   Photos courtesy of SpottingLog. You can add your own sightings and photos by signing up for a free trial today.



No photos found.

Weather at Emo River Airstrip


Time (UTC)DescriptionTempratureWindCloud coverageVisibilityPressureHumidity
26-Jun-2024 00:00Clear Sky25°C7 mph, NE9%10000m1016hPa63%
26-Jun-2024 03:00Light Rain25°C7 mph, NE25%10000m1016hPa68%
26-Jun-2024 06:00Light Rain23°C4 mph, NE52%10000m1015hPa84%
26-Jun-2024 09:00Light Rain19°C0 mph, N68%0m1016hPa99%
26-Jun-2024 12:00Broken Clouds19°C0 mph, W75%10000m1017hPa98%
26-Jun-2024 15:00Broken Clouds18°C2 mph, W82%10000m1016hPa97%
26-Jun-2024 18:00Overcast Clouds18°C2 mph, SW88%10000m1016hPa95%
26-Jun-2024 21:00Overcast Clouds19°C2 mph, SW100%10000m1017hPa91%
27-Jun-2024 00:00Light Rain20°C4 mph, NE100%10000m1017hPa93%
27-Jun-2024 03:00Light Rain23°C4 mph, NE100%10000m1014hPa81%
27-Jun-2024 06:00Light Rain23°C4 mph, N100%10000m1012hPa83%
27-Jun-2024 09:00Light Rain20°C0 mph, W100%2254m1015hPa97%
27-Jun-2024 12:00Light Rain19°C2 mph, W100%10000m1016hPa97%
27-Jun-2024 15:00Overcast Clouds19°C2 mph, W86%10000m1015hPa95%
27-Jun-2024 18:00Light Rain19°C2 mph, SW92%10000m1014hPa95%
27-Jun-2024 21:00Light Rain19°C2 mph, S97%6971m1016hPa98%
28-Jun-2024 00:00Light Rain21°C4 mph, N98%0m1016hPa94%
28-Jun-2024 03:00Moderate Rain20°C2 mph, N99%0m1016hPa98%
28-Jun-2024 06:00Moderate Rain21°C2 mph, N100%6589m1015hPa95%
28-Jun-2024 09:00Light Rain19°C2 mph, SW100%10000m1016hPa96%
28-Jun-2024 12:00Overcast Clouds19°C2 mph, SW100%10000m1018hPa96%
28-Jun-2024 15:00Overcast Clouds18°C2 mph, W99%10000m1016hPa96%
28-Jun-2024 18:00Overcast Clouds18°C2 mph, SW87%10000m1016hPa95%
28-Jun-2024 21:00Broken Clouds19°C2 mph, SW70%10000m1017hPa94%
29-Jun-2024 00:00Broken Clouds23°C4 mph, NE77%10000m1016hPa79%
29-Jun-2024 03:00Scattered Clouds27°C7 mph, NE45%10000m1013hPa56%
29-Jun-2024 06:00Light Rain23°C4 mph, NE39%10000m1013hPa82%
29-Jun-2024 09:00Light Rain19°C2 mph, SE99%10000m1016hPa97%
29-Jun-2024 12:00Light Rain19°C2 mph, SE99%7230m1017hPa96%
29-Jun-2024 15:00Overcast Clouds18°C2 mph, S100%7678m1016hPa97%
29-Jun-2024 18:00Overcast Clouds18°C2 mph, SW100%10000m1015hPa96%
29-Jun-2024 21:00Overcast Clouds18°C2 mph, SW100%10000m1017hPa89%
30-Jun-2024 00:00Overcast Clouds24°C7 mph, NE100%10000m1015hPa67%
30-Jun-2024 03:00Light Rain23°C4 mph, NE94%8427m1014hPa87%
30-Jun-2024 06:00Light Rain22°C4 mph, NE91%9047m1012hPa92%
30-Jun-2024 09:00Light Rain20°C2 mph, NE99%3619m1014hPa100%
30-Jun-2024 12:00Light Rain20°C2 mph, N99%0m1016hPa100%
30-Jun-2024 15:00Moderate Rain19°C2 mph, N100%0m1015hPa100%
30-Jun-2024 18:00Light Rain19°C0 mph, N100%0m1015hPa98%
30-Jun-2024 21:00Broken Clouds18°C2 mph, W70%10000m1015hPa95%